createdAt,value
2023-01-25T00:00:47.679Z,46.08
2023-01-25T00:03:14.924Z,45.03
2023-01-25T00:05:42.237Z,45.63
2023-01-25T00:08:09.319Z,43.63
2023-01-25T00:10:36.330Z,46.42
2023-01-25T00:13:03.477Z,48.92
2023-01-25T00:15:31.068Z,46.42
2023-01-25T00:17:58.044Z,45.00
2023-01-25T00:20:25.277Z,42.70
2023-01-25T00:22:52.390Z,41.90
2023-01-25T00:25:19.622Z,41.67
2023-01-25T00:27:46.670Z,39.42
2023-01-25T00:30:16.901Z,40.40
2023-01-25T00:32:57.939Z,38.38
2023-01-25T00:35:32.578Z,38.75
2023-01-25T00:38:02.741Z,41.25
2023-01-25T00:40:29.924Z,40.72
2023-01-25T00:43:00.867Z,40.83
2023-01-25T00:45:28.010Z,37.72
2023-01-25T00:47:56.445Z,36.53
2023-01-25T00:50:23.876Z,36.25
2023-01-25T00:52:50.871Z,38.28
2023-01-25T00:55:17.997Z,37.17
2023-01-25T00:57:45.399Z,37.13
2023-01-25T01:00:13.183Z,36.80
2023-01-25T01:02:40.792Z,38.40
2023-01-25T01:05:10.472Z,36.00
2023-01-25T01:07:37.804Z,34.33
2023-01-25T01:10:05.480Z,37.40
2023-01-25T01:12:32.529Z,32.75
2023-01-25T01:14:59.648Z,33.58
2023-01-25T01:17:26.758Z,31.90
2023-01-25T01:19:53.858Z,32.42
2023-01-25T01:22:20.909Z,30.98
2023-01-25T01:24:49.442Z,28.98
2023-01-25T01:27:16.544Z,31.38
2023-01-25T01:29:43.747Z,29.80
2023-01-25T01:32:10.950Z,28.10
2023-01-25T01:34:38.091Z,27.13
2023-01-25T01:37:05.287Z,26.17
2023-01-25T01:39:32.753Z,27.98
2023-01-25T01:41:59.901Z,22.92
2023-01-25T01:44:48.159Z,23.88
2023-01-25T01:47:27.010Z,23.20
2023-01-25T01:50:04.650Z,21.33
2023-01-25T01:52:37.867Z,22.80
2023-01-25T01:55:09.623Z,19.13
2023-01-25T01:57:55.138Z,19.40
2023-01-25T02:00:30.918Z,17.73
2023-01-25T02:03:02.376Z,17.63
2023-01-25T02:05:42.817Z,16.58
2023-01-25T02:08:14.158Z,17.45
2023-01-25T02:10:43.207Z,15.52
2023-01-25T02:13:10.845Z,15.88
2023-01-25T02:15:45.103Z,15.27
2023-01-25T02:18:13.345Z,15.10
2023-01-25T02:20:44.098Z,13.65
2023-01-25T02:23:25.271Z,12.10
2023-01-25T02:25:52.575Z,11.63
2023-01-25T02:28:47.139Z,10.23
2023-01-25T02:31:14.781Z,9.25
2023-01-25T02:33:41.907Z,10.27
2023-01-25T02:36:13.761Z,10.18
2023-01-25T02:39:10.323Z,9.43
2023-01-25T02:41:43.712Z,10.85
2023-01-25T02:44:34.310Z,11.25
2023-01-25T02:47:04.293Z,14.20
2023-01-25T02:49:31.406Z,12.70
2023-01-25T02:51:58.487Z,11.93
2023-01-25T02:54:26.964Z,13.63
2023-01-25T02:56:54.945Z,10.70
2023-01-25T02:59:24.051Z,10.80
2023-01-25T03:01:55.099Z,11.15
2023-01-25T03:04:23.139Z,10.38
2023-01-25T03:06:50.551Z,10.23
2023-01-25T03:09:18.536Z,9.65
2023-01-25T03:11:48.451Z,9.15
2023-01-25T03:14:16.951Z,10.18
2023-01-25T03:16:44.096Z,9.60
2023-01-25T03:19:11.563Z,9.55
2023-01-25T03:21:41.148Z,11.60
2023-01-25T03:24:10.229Z,11.77
2023-01-25T03:27:02.006Z,11.55
2023-01-25T03:29:52.533Z,13.93
2023-01-25T03:32:23.017Z,11.90
2023-01-25T03:34:50.305Z,11.30
2023-01-25T03:37:19.390Z,11.23
2023-01-25T03:39:47.806Z,11.95
2023-01-25T03:42:15.464Z,9.43
2023-01-25T03:44:43.536Z,10.73
2023-01-25T03:47:10.677Z,10.13
2023-01-25T03:49:37.798Z,9.70
2023-01-25T03:52:06.923Z,10.93
2023-01-25T03:54:38.323Z,8.07
2023-01-25T03:57:08.204Z,9.85
2023-01-25T03:59:43.575Z,8.90
2023-01-25T04:02:12.943Z,10.27
2023-01-25T04:04:40.247Z,9.25
2023-01-25T04:07:08.749Z,9.48
2023-01-25T04:09:37.404Z,10.60
2023-01-25T04:12:05.836Z,12.48
2023-01-25T04:14:43.995Z,9.98
2023-01-25T04:17:17.392Z,11.07
2023-01-25T04:19:50.318Z,10.75
2023-01-25T04:22:21.089Z,11.93
2023-01-25T04:24:50.579Z,11.80
2023-01-25T04:27:18.407Z,13.70
2023-01-25T04:29:54.998Z,12.90
2023-01-25T04:32:24.799Z,13.57
2023-01-25T04:34:52.038Z,12.57
2023-01-25T04:37:22.387Z,13.45
2023-01-25T04:39:57.004Z,13.48
2023-01-25T04:42:24.745Z,14.25
2023-01-25T04:44:55.269Z,13.05
2023-01-25T04:47:22.914Z,12.18
2023-01-25T04:49:50.074Z,12.32
2023-01-25T04:52:20.491Z,11.07
2023-01-25T04:54:47.595Z,11.32
2023-01-25T04:57:18.286Z,10.70
2023-01-25T04:59:50.819Z,11.02
2023-01-25T05:02:22.853Z,11.65
2023-01-25T05:04:50.604Z,10.90
2023-01-25T05:07:22.592Z,11.68
2023-01-25T05:09:50.467Z,10.85
2023-01-25T05:12:20.067Z,12.75
2023-01-25T05:15:01.294Z,13.32
2023-01-25T05:17:28.946Z,14.13
2023-01-25T05:19:56.726Z,12.85
2023-01-25T05:22:25.448Z,11.27
2023-01-25T05:24:54.172Z,12.02
2023-01-25T05:27:23.472Z,11.23
2023-01-25T05:29:58.926Z,11.15
2023-01-25T05:32:52.439Z,11.00
2023-01-25T05:35:20.127Z,12.00
2023-01-25T05:37:54.790Z,12.88
2023-01-25T05:40:24.948Z,11.65
2023-01-25T05:42:56.659Z,10.98
2023-01-25T05:45:25.439Z,11.23
2023-01-25T05:47:55.771Z,11.40
2023-01-25T05:50:24.407Z,8.75
2023-01-25T05:53:07.736Z,10.13
2023-01-25T05:55:37.035Z,11.00
2023-01-25T05:58:08.901Z,10.82
2023-01-25T06:00:36.466Z,14.45
2023-01-25T06:03:04.407Z,22.73
2023-01-25T06:05:35.591Z,23.98
2023-01-25T06:08:03.084Z,19.58
2023-01-25T06:10:39.064Z,14.27
2023-01-25T06:13:11.856Z,11.27
2023-01-25T06:18:25.279Z,11.45
2023-01-25T06:21:10.324Z,13.13
2023-01-25T06:23:41.178Z,12.23
2023-01-25T06:26:12.989Z,12.07
2023-01-25T06:28:43.571Z,12.32
2023-01-25T06:31:13.766Z,11.75
2023-01-25T06:33:47.688Z,12.50
2023-01-25T06:36:17.437Z,18.85
2023-01-25T06:38:49.869Z,13.93
2023-01-25T06:41:17.846Z,11.30
2023-01-25T06:43:48.280Z,9.98
2023-01-25T06:46:20.547Z,10.75
2023-01-25T06:48:54.171Z,10.85
2023-01-25T06:51:23.975Z,11.43
2023-01-25T06:53:51.528Z,12.82
2023-01-25T06:56:23.619Z,11.48
2023-01-25T06:58:51.285Z,10.43
2023-01-25T07:01:27.640Z,10.57
2023-01-25T07:03:57.662Z,11.38
2023-01-25T07:06:28.381Z,11.20
2023-01-25T07:08:56.742Z,10.73
2023-01-25T07:11:24.537Z,11.63
2023-01-25T07:16:54.417Z,12.55
2023-01-25T07:19:22.341Z,13.30
2023-01-25T07:21:52.917Z,11.93
2023-01-25T07:24:20.701Z,11.52
2023-01-25T07:26:49.839Z,13.68
2023-01-25T07:29:17.368Z,11.00
2023-01-25T07:31:44.686Z,11.13
2023-01-25T07:34:13.528Z,14.70
2023-01-25T07:36:44.930Z,11.75
2023-01-25T07:39:12.096Z,11.13
2023-01-25T07:41:40.552Z,10.02
2023-01-25T07:44:12.421Z,10.32
2023-01-25T07:46:46.631Z,12.15
2023-01-25T07:49:13.769Z,11.75
2023-01-25T07:51:40.807Z,9.75
2023-01-25T07:54:10.887Z,10.63
2023-01-25T07:56:40.461Z,11.90
2023-01-25T07:59:08.508Z,10.48
2023-01-25T08:01:37.079Z,10.38
2023-01-25T08:04:05.628Z,11.65
2023-01-25T08:06:39.397Z,11.52
2023-01-25T08:09:10.986Z,12.07
2023-01-25T08:11:38.357Z,12.02
2023-01-25T08:14:05.499Z,12.30
2023-01-25T08:16:32.880Z,12.20
2023-01-25T08:19:01.726Z,11.70
2023-01-25T08:21:30.965Z,11.40
2023-01-25T08:23:59.925Z,11.60
2023-01-25T08:26:27.610Z,11.35
2023-01-25T08:28:55.379Z,11.95
2023-01-25T08:31:26.071Z,12.15
2023-01-25T08:33:53.499Z,12.35
2023-01-25T08:36:21.297Z,11.98
2023-01-25T08:38:48.900Z,10.52
2023-01-25T08:41:19.614Z,11.60
2023-01-25T08:43:47.692Z,13.00
2023-01-25T08:46:16.711Z,10.45
2023-01-25T08:48:43.859Z,10.32
2023-01-25T08:51:16.528Z,12.35
2023-01-25T08:53:44.022Z,9.70
2023-01-25T08:56:13.381Z,10.23
2023-01-25T08:58:43.113Z,10.48
2023-01-25T09:01:12.060Z,10.23
2023-01-25T09:03:41.856Z,9.88
2023-01-25T09:06:11.004Z,10.70
2023-01-25T09:08:38.437Z,10.40
2023-01-25T09:11:09.692Z,10.30
2023-01-25T09:13:37.058Z,9.43
2023-01-25T09:16:07.067Z,8.25
2023-01-25T09:18:36.265Z,8.68
2023-01-25T09:21:22.402Z,8.70
2023-01-25T09:24:09.483Z,8.82
2023-01-25T09:26:50.086Z,8.32
2023-01-25T09:29:23.085Z,9.20
2023-01-25T09:31:50.505Z,9.43
2023-01-25T09:34:40.448Z,10.05
2023-01-25T09:37:07.630Z,9.43
2023-01-25T09:39:34.802Z,7.93
2023-01-25T09:42:32.847Z,7.05
2023-01-25T09:45:16.667Z,7.30
2023-01-25T09:47:56.089Z,9.25
2023-01-25T09:50:39.681Z,7.40
2023-01-25T09:53:15.563Z,6.63
2023-01-25T09:55:43.057Z,8.00
2023-01-25T09:58:24.344Z,8.68
2023-01-25T10:01:04.418Z,7.53
2023-01-25T10:03:42.753Z,8.38
2023-01-25T10:06:13.355Z,8.18
2023-01-25T10:09:08.466Z,6.90
2023-01-25T10:11:38.932Z,7.53
2023-01-25T10:14:13.884Z,5.20
2023-01-25T10:16:47.258Z,7.97
2023-01-25T10:19:39.328Z,7.35
2023-01-25T10:22:19.430Z,6.93
2023-01-25T10:25:18.879Z,6.97
2023-01-25T10:27:57.450Z,7.10
2023-01-25T10:30:28.496Z,9.05
2023-01-25T10:33:00.540Z,7.35
2023-01-25T10:35:39.251Z,8.00
2023-01-25T10:38:26.351Z,11.73
2023-01-25T10:40:59.983Z,19.85
2023-01-25T10:43:27.254Z,10.68
2023-01-25T10:45:55.349Z,9.07
2023-01-25T10:48:29.922Z,8.48
2023-01-25T10:50:57.863Z,8.55
2023-01-25T10:53:36.996Z,8.57
2023-01-25T10:56:10.403Z,7.85
2023-01-25T10:58:43.800Z,8.70
2023-01-25T11:01:28.085Z,8.93
2023-01-25T11:03:55.554Z,11.60
2023-01-25T11:06:37.381Z,9.57
2023-01-25T11:09:22.996Z,8.38
2023-01-25T11:11:56.828Z,10.10
2023-01-25T11:14:29.225Z,9.05
2023-01-25T11:16:58.028Z,7.45
2023-01-25T11:19:35.975Z,9.38
2023-01-25T11:22:06.881Z,8.68
2023-01-25T11:24:35.903Z,8.20
2023-01-25T11:27:21.235Z,7.95
2023-01-25T11:30:10.473Z,10.63
2023-01-25T11:32:41.137Z,8.15
2023-01-25T11:35:17.945Z,8.18
2023-01-25T11:38:11.384Z,8.50
2023-01-25T11:40:46.620Z,9.77
2023-01-25T11:43:52.874Z,7.30
2023-01-25T11:46:35.048Z,7.25
2023-01-25T11:49:29.887Z,9.53
2023-01-25T11:52:09.418Z,8.25
2023-01-25T11:54:45.951Z,8.02
2023-01-25T11:57:36.086Z,8.25
2023-01-25T12:00:27.742Z,8.35
2023-01-25T12:03:07.175Z,6.55
2023-01-25T12:06:00.623Z,6.93
2023-01-25T12:08:52.663Z,7.00
2023-01-25T12:11:40.787Z,6.25
2023-01-25T12:14:20.946Z,7.03
2023-01-25T12:17:23.552Z,6.78
2023-01-25T12:20:07.002Z,16.70
2023-01-25T12:22:42.468Z,7.43
2023-01-25T12:25:43.494Z,6.78
2023-01-25T12:28:46.350Z,6.70
2023-01-25T12:31:23.482Z,6.85
2023-01-25T12:33:58.446Z,6.28
2023-01-25T12:36:28.600Z,7.18
2023-01-25T12:39:19.698Z,7.13
2023-01-25T12:42:22.094Z,6.03
2023-01-25T12:44:59.214Z,5.85
2023-01-25T12:47:41.855Z,8.05
2023-01-25T12:50:25.417Z,6.45
2023-01-25T12:53:05.021Z,6.05
2023-01-25T12:55:33.072Z,8.27
2023-01-25T12:58:23.796Z,6.85
2023-01-25T13:01:28.793Z,7.15
2023-01-25T13:04:26.205Z,8.00
2023-01-25T13:06:56.151Z,6.40
2023-01-25T13:09:33.134Z,7.13
2023-01-25T13:12:03.846Z,8.13
2023-01-25T13:14:38.064Z,7.65
2023-01-25T13:17:21.904Z,7.90
2023-01-25T13:19:50.479Z,8.68
2023-01-25T13:22:45.259Z,7.88
2023-01-25T13:25:22.158Z,7.95
2023-01-25T13:27:49.355Z,8.23
2023-01-25T13:30:16.394Z,7.97
2023-01-25T13:32:49.527Z,7.97
2023-01-25T13:35:34.645Z,7.95
2023-01-25T13:38:11.612Z,6.63
2023-01-25T13:40:39.922Z,7.47
2023-01-25T13:43:13.072Z,6.35
2023-01-25T13:45:42.104Z,8.02
2023-01-25T13:48:09.109Z,7.72
2023-01-25T13:50:50.541Z,7.90
2023-01-25T13:53:21.680Z,8.00
2023-01-25T13:55:54.915Z,7.90
2023-01-25T13:58:38.820Z,8.18
2023-01-25T14:01:14.706Z,7.00
2023-01-25T14:03:51.039Z,7.72
2023-01-25T14:06:24.899Z,6.93
2023-01-25T14:08:54.710Z,11.18
2023-01-25T14:11:23.965Z,10.88
2023-01-25T14:14:00.142Z,13.20
2023-01-25T14:16:29.968Z,16.23
2023-01-25T14:19:18.873Z,15.45
2023-01-25T14:21:45.976Z,10.80
2023-01-25T14:24:19.469Z,12.55
2023-01-25T14:26:47.706Z,9.95
2023-01-25T14:29:35.408Z,8.25
2023-01-25T14:32:03.109Z,9.43
2023-01-25T14:34:30.320Z,9.15
2023-01-25T14:37:26.520Z,9.40
2023-01-25T14:39:53.690Z,8.73
2023-01-25T14:42:21.037Z,9.45
2023-01-25T14:44:48.403Z,9.43
2023-01-25T14:47:31.165Z,10.02
2023-01-25T14:50:29.200Z,11.65
2023-01-25T14:52:57.584Z,9.10
2023-01-25T14:55:25.634Z,43.50
2023-01-25T14:57:58.285Z,24.42
2023-01-25T15:00:33.106Z,25.02
2023-01-25T15:03:04.492Z,14.05
2023-01-25T15:05:35.041Z,32.72
2023-01-25T15:08:08.342Z,20.92
2023-01-25T15:10:37.324Z,9.32
2023-01-25T15:13:14.283Z,10.35
2023-01-25T15:16:03.578Z,9.05
2023-01-25T15:18:48.947Z,8.27
2023-01-25T15:21:24.132Z,9.35
2023-01-25T15:23:56.637Z,8.48
2023-01-25T15:26:29.710Z,8.70
2023-01-25T15:29:00.096Z,9.02
2023-01-25T15:31:38.208Z,8.77
2023-01-25T15:34:05.821Z,8.82
2023-01-25T15:36:33.924Z,10.13
2023-01-25T15:39:01.124Z,11.65
2023-01-25T15:41:28.653Z,10.98
2023-01-25T15:43:56.022Z,10.55
2023-01-25T15:46:26.336Z,10.10
2023-01-25T15:48:55.256Z,10.80
2023-01-25T15:51:22.887Z,12.85
2023-01-25T15:53:50.815Z,12.82
2023-01-25T15:56:20.990Z,11.50
2023-01-25T15:58:52.157Z,14.32
2023-01-25T16:01:20.168Z,13.25
2023-01-25T16:03:47.653Z,12.55
2023-01-25T16:06:23.913Z,13.93
2023-01-25T16:08:51.078Z,14.48
2023-01-25T16:11:18.217Z,12.88
2023-01-25T16:13:45.243Z,11.35
2023-01-25T16:16:19.716Z,10.32
2023-01-25T16:18:47.959Z,10.43
2023-01-25T16:21:16.096Z,10.95
2023-01-25T16:23:43.443Z,9.93
2023-01-25T16:26:22.474Z,10.57
2023-01-25T16:28:49.988Z,7.55
2023-01-25T16:31:31.198Z,8.18
2023-01-25T16:34:01.646Z,8.68
2023-01-25T16:36:30.769Z,8.07
2023-01-25T16:39:10.384Z,9.32
2023-01-25T16:41:38.494Z,9.82
2023-01-25T16:44:06.214Z,10.88
2023-01-25T16:46:36.001Z,11.00
2023-01-25T16:49:10.290Z,11.30
2023-01-25T16:51:38.766Z,11.57
2023-01-25T16:54:06.633Z,13.90
2023-01-25T16:56:34.718Z,12.30
2023-01-25T16:59:04.986Z,11.10
2023-01-25T17:01:34.567Z,13.77
2023-01-25T17:04:02.461Z,12.63
2023-01-25T17:06:35.460Z,12.27
2023-01-25T17:09:20.587Z,12.43
2023-01-25T17:11:49.614Z,12.70
2023-01-25T17:14:19.552Z,11.10
2023-01-25T17:16:49.352Z,12.90
2023-01-25T17:19:20.747Z,11.57
2023-01-25T17:21:50.830Z,12.70
2023-01-25T17:24:21.672Z,14.15
2023-01-25T17:26:51.276Z,15.25
2023-01-25T17:29:22.343Z,15.25
2023-01-25T17:31:50.562Z,15.73
2023-01-25T17:34:20.192Z,16.63
2023-01-25T17:36:49.168Z,16.02
2023-01-25T17:39:27.425Z,15.05
2023-01-25T17:41:55.558Z,16.85
2023-01-25T17:44:25.119Z,18.70
2023-01-25T17:46:53.495Z,16.77
2023-01-25T17:49:23.029Z,15.73
2023-01-25T17:51:52.179Z,14.07
2023-01-25T17:54:20.686Z,14.20
2023-01-25T17:56:48.938Z,16.02
2023-01-25T17:59:17.155Z,18.38
2023-01-25T18:01:44.943Z,17.30
2023-01-25T18:04:13.863Z,13.70
2023-01-25T18:06:42.355Z,11.38
2023-01-25T18:09:10.977Z,11.02
2023-01-25T18:11:41.297Z,9.70
2023-01-25T18:14:15.682Z,10.45
2023-01-25T18:16:45.176Z,11.48
2023-01-25T18:19:14.010Z,11.65
2023-01-25T18:21:44.231Z,16.98
2023-01-25T18:24:32.271Z,27.80
2023-01-25T18:27:06.510Z,28.63
2023-01-25T18:29:54.557Z,29.33
2023-01-25T18:32:23.323Z,31.27
2023-01-25T18:35:14.462Z,29.20
2023-01-25T18:37:47.155Z,15.27
2023-01-25T18:40:18.437Z,12.52
2023-01-25T18:42:49.997Z,17.20
2023-01-25T18:45:20.531Z,18.10
2023-01-25T18:47:49.000Z,18.05
2023-01-25T18:50:17.142Z,15.60
2023-01-25T18:52:45.304Z,14.52
2023-01-25T18:55:16.233Z,12.75
2023-01-25T18:57:44.430Z,14.63
2023-01-25T19:00:15.565Z,14.70
2023-01-25T19:02:43.747Z,14.70
2023-01-25T19:05:15.038Z,11.82
2023-01-25T19:07:43.347Z,11.68
2023-01-25T19:10:12.651Z,12.48
2023-01-25T19:12:43.524Z,12.57
2023-01-25T19:15:12.385Z,13.48
2023-01-25T19:17:48.727Z,14.40
2023-01-25T19:20:17.544Z,11.57
2023-01-25T19:22:46.068Z,14.52
2023-01-25T19:25:15.054Z,14.80
2023-01-25T19:27:43.158Z,14.13
2023-01-25T19:30:12.125Z,12.98
2023-01-25T19:32:41.628Z,11.68
2023-01-25T19:35:10.597Z,12.68
2023-01-25T19:37:39.481Z,10.20
2023-01-25T19:40:10.518Z,10.32
2023-01-25T19:42:39.113Z,9.13
2023-01-25T19:45:09.931Z,10.75
2023-01-25T19:47:41.407Z,10.85
2023-01-25T19:50:14.193Z,10.75
2023-01-25T19:52:43.129Z,12.32
2023-01-25T19:55:11.751Z,15.05
2023-01-25T19:57:40.095Z,16.42
2023-01-25T20:00:10.512Z,18.23
2023-01-25T20:02:41.351Z,21.98
2023-01-25T20:05:13.020Z,24.48
2023-01-25T20:07:42.432Z,27.25
2023-01-25T20:10:15.671Z,23.70
2023-01-25T20:12:44.149Z,23.48
2023-01-25T20:15:15.277Z,22.40
2023-01-25T20:17:43.660Z,23.23
2023-01-25T20:20:12.156Z,21.33
2023-01-25T20:22:40.503Z,19.70
2023-01-25T20:25:09.078Z,22.13
2023-01-25T20:27:38.643Z,20.58
2023-01-25T20:30:07.773Z,21.00
2023-01-25T20:32:37.351Z,18.30
2023-01-25T20:35:09.060Z,39.65
2023-01-25T20:37:38.115Z,38.35
2023-01-25T20:40:07.048Z,40.15
2023-01-25T20:42:35.237Z,53.25
2023-01-25T20:45:03.434Z,50.95
2023-01-25T20:47:31.390Z,47.30
2023-01-25T20:50:01.560Z,48.83
2023-01-25T20:52:31.455Z,52.20
2023-01-25T20:55:01.238Z,55.83
2023-01-25T20:57:31.093Z,52.05
2023-01-25T21:00:00.170Z,42.10
2023-01-25T21:02:39.036Z,43.22
2023-01-25T21:05:07.697Z,40.80
2023-01-25T21:07:35.659Z,44.42
2023-01-25T21:10:03.831Z,51.80
2023-01-25T21:12:34.013Z,47.15
2023-01-25T21:15:05.463Z,42.85
2023-01-25T21:17:33.291Z,44.25
2023-01-25T21:20:04.459Z,42.75
2023-01-25T21:22:32.708Z,40.40
2023-01-25T21:25:00.967Z,40.10
2023-01-25T21:27:29.751Z,36.75
2023-01-25T21:29:58.428Z,39.80
2023-01-25T21:32:26.198Z,41.28
2023-01-25T21:34:53.873Z,41.78
2023-01-25T21:37:22.531Z,40.00
2023-01-25T21:39:50.322Z,38.17
2023-01-25T21:42:18.029Z,38.53
2023-01-25T21:45:03.682Z,36.75
2023-01-25T21:47:32.593Z,36.45
2023-01-25T21:50:18.771Z,37.40
2023-01-25T21:52:45.987Z,33.13
2023-01-25T21:55:13.770Z,33.17
2023-01-25T21:57:46.384Z,31.65
2023-01-25T22:00:16.207Z,30.27
2023-01-25T22:02:44.233Z,31.88
2023-01-25T22:05:11.549Z,29.25
2023-01-25T22:07:38.694Z,27.40
2023-01-25T22:10:06.056Z,28.25
2023-01-25T22:12:33.112Z,26.88
2023-01-25T22:15:00.224Z,24.83
2023-01-25T22:17:28.625Z,22.40
2023-01-25T22:19:55.785Z,23.50
2023-01-25T22:22:22.799Z,23.45
2023-01-25T22:24:49.839Z,22.50
2023-01-25T22:27:32.658Z,22.50
2023-01-25T22:29:59.789Z,23.83
2023-01-25T22:32:26.925Z,25.13
2023-01-25T22:34:55.131Z,24.23
2023-01-25T22:37:22.216Z,24.98
2023-01-25T22:39:49.427Z,26.52
2023-01-25T22:42:16.983Z,23.58
2023-01-25T22:44:44.133Z,22.77
2023-01-25T22:47:13.563Z,23.85
2023-01-25T22:49:40.666Z,20.63
2023-01-25T22:52:07.854Z,20.75
2023-01-25T22:54:34.925Z,20.10
2023-01-25T22:57:01.957Z,23.20
2023-01-25T22:59:28.976Z,23.13
2023-01-25T23:01:56.094Z,21.88
2023-01-25T23:04:23.310Z,20.50
2023-01-25T23:06:50.449Z,21.50
2023-01-25T23:09:17.526Z,20.92
2023-01-25T23:11:44.580Z,18.83
2023-01-25T23:14:31.024Z,19.50
2023-01-25T23:17:18.094Z,18.52
2023-01-25T23:19:45.304Z,18.98
2023-01-25T23:22:12.657Z,19.08
2023-01-25T23:24:39.747Z,19.80
2023-01-25T23:27:06.769Z,19.83
2023-01-25T23:29:33.856Z,20.13
2023-01-25T23:32:00.939Z,19.70
2023-01-25T23:34:28.270Z,20.50
2023-01-25T23:36:55.508Z,18.92
2023-01-25T23:39:23.690Z,21.13
2023-01-25T23:41:52.482Z,21.50
2023-01-25T23:44:19.542Z,20.23
2023-01-25T23:46:46.895Z,20.85
2023-01-25T23:49:14.382Z,20.63
2023-01-25T23:51:41.439Z,21.27
2023-01-25T23:54:08.676Z,21.40
2023-01-25T23:56:35.739Z,21.05
2023-01-25T23:59:02.856Z,21.38
